Time;durP1;ratioP1;P1;durP2;ratioP2;P2;SDS_P1;SDS_P2;PMS_P1;PMS_P2;Temp;Humidity;BMP_temperature;BMP_pressure;BME280_temperature;BME280_humidity;BME280_pressure;Samples;Min_cycle;Max_cycle;Signal;HPM_P1;HPM_P2
2021/06/28 00:02:23;;;;;;;0.10;0.10;;;;;;;16.28;81.90;101072.91;5035126;28;20413;-83
2021/06/28 00:04:51;;;;;;;0.10;0.10;;;;;;;16.29;82.25;101076.44;5037703;28;20042;-84
2021/06/28 00:07:27;;;;;;;0.10;0.10;;;;;;;16.22;81.84;101071.38;5040304;28;20896;-84
2021/06/28 00:10:01;;;;;;;0.10;0.10;;;;;;;16.22;81.79;101063.13;5036173;28;20052;-84
2021/06/28 00:12:38;;;;;;;0.10;0.10;;;;;;;16.23;81.82;101067.50;5045728;28;20037;-85
2021/06/28 00:15:15;;;;;;;0.10;0.10;;;;;;;16.18;82.06;101070.34;5045021;28;20049;-85
2021/06/28 00:17:49;;;;;;;0.10;0.10;;;;;;;16.18;81.96;101072.31;5046884;28;20512;-85
2021/06/28 00:20:24;;;;;;;0.10;0.10;;;;;;;16.18;82.77;101083.28;5042715;28;20045;-84
2021/06/28 00:23:22;;;;;;;0.10;0.10;;;;;;;16.11;83.00;101075.47;5035997;28;20590;-85
2021/06/28 00:25:55;;;;;;;0.10;0.10;;;;;;;15.97;84.84;101070.00;5039389;28;20123;-85
2021/06/28 00:28:30;;;;;;;0.10;0.10;;;;;;;16.09;83.10;101077.72;5042520;28;20033;-85
2021/06/28 00:30:59;;;;;;;0.10;0.10;;;;;;;16.05;82.71;101068.47;5047174;28;20052;-85
2021/06/28 00:33:34;;;;;;;0.10;0.10;;;;;;;15.96;82.97;101058.22;5035598;28;20043;-85
2021/06/28 00:36:08;;;;;;;0.10;0.10;;;;;;;15.90;83.28;101064.13;5040831;28;20065;-85
2021/06/28 00:38:42;;;;;;;0.13;0.13;;;;;;;15.92;83.29;101072.84;5037939;28;20049;-84
2021/06/28 00:41:15;;;;;;;0.10;0.10;;;;;;;15.88;83.25;101069.91;5033510;28;20084;-85
2021/06/28 00:43:45;;;;;;;0.10;0.10;;;;;;;15.84;83.42;101068.91;5043853;28;20052;-85
2021/06/28 00:46:15;;;;;;;0.10;0.10;;;;;;;15.78;83.17;101061.84;5037715;28;20053;-85
2021/06/28 00:48:49;;;;;;;0.10;0.10;;;;;;;15.85;83.07;101072.44;5056483;28;20053;-85
2021/06/28 00:51:24;;;;;;;0.10;0.10;;;;;;;15.86;83.39;101079.56;5039760;28;20145;-85
2021/06/28 00:53:58;;;;;;;0.10;0.10;;;;;;;15.83;84.36;101077.44;5037476;28;20042;-84
2021/06/28 00:56:33;;;;;;;0.10;0.10;;;;;;;15.63;85.20;101072.00;5048506;28;23157;-85
2021/06/28 00:59:08;;;;;;;0.10;0.10;;;;;;;15.59;85.99;101076.50;5033385;28;20054;-85
2021/06/28 01:01:47;;;;;;;0.10;0.10;;;;;;;15.55;85.62;101074.63;5034073;28;20044;-85
2021/06/28 01:04:20;;;;;;;0.10;0.10;;;;;;;15.54;85.43;101078.53;5036978;28;20075;-84
2021/06/28 01:06:57;;;;;;;0.10;0.10;;;;;;;15.56;84.79;101088.03;5048167;28;20056;-86
2021/06/28 01:09:31;;;;;;;0.15;0.15;;;;;;;15.52;85.11;101078.00;5042632;28;20041;-85
2021/06/28 01:12:06;;;;;;;0.10;0.10;;;;;;;15.46;85.69;101083.56;5041728;28;20056;-85
2021/06/28 01:14:45;;;;;;;0.10;0.10;;;;;;;15.48;85.39;101077.81;5035462;28;20041;-85
2021/06/28 01:17:19;;;;;;;0.10;0.10;;;;;;;15.42;85.59;101070.78;5038267;28;20041;-85
2021/06/28 01:19:58;;;;;;;0.10;0.10;;;;;;;15.37;86.05;101077.19;5036196;28;20057;-84
2021/06/28 01:22:32;;;;;;;0.10;0.10;;;;;;;15.33;86.18;101081.63;5041259;28;20049;-86
2021/06/28 01:25:05;;;;;;;0.10;0.10;;;;;;;15.22;86.77;101080.16;5049502;28;20057;-84
2021/06/28 01:27:40;;;;;;;0.10;0.10;;;;;;;15.17;86.59;101072.06;5044050;28;20056;-85
2021/06/28 01:30:17;;;;;;;0.20;0.20;;;;;;;15.17;86.21;101074.81;5047715;28;20052;-85
2021/06/28 01:32:51;;;;;;;0.10;0.10;;;;;;;15.20;85.89;101077.72;5039878;28;20041;-85
2021/06/28 01:35:26;;;;;;;0.10;0.10;;;;;;;15.16;85.89;101075.91;5040289;28;20525;-85
2021/06/28 01:37:59;;;;;;;0.10;0.10;;;;;;;15.01;86.90;101083.28;5038278;28;20045;-85
2021/06/28 01:40:34;;;;;;;0.10;0.10;;;;;;;14.96;87.22;101078.69;5039640;28;20056;-85
2021/06/28 01:43:16;;;;;;;0.20;0.20;;;;;;;14.88;86.93;101086.78;5041444;28;20034;-85
2021/06/28 01:45:45;;;;;;;0.10;0.10;;;;;;;14.83;86.79;101084.13;5042228;28;20076;-84
2021/06/28 01:48:23;;;;;;;0.20;0.20;;;;;;;14.74;86.19;101078.53;5037173;28;20303;-84
2021/06/28 01:50:58;;;;;;;0.20;0.20;;;;;;;14.82;86.31;101077.00;5040316;28;20045;-84
2021/06/28 01:53:31;;;;;;;0.10;0.10;;;;;;;14.83;85.80;101070.44;5040267;28;20045;-84
2021/06/28 01:56:07;;;;;;;0.10;0.10;;;;;;;14.81;86.20;101075.41;5034382;28;20427;-84
2021/06/28 01:58:42;;;;;;;0.10;0.10;;;;;;;14.83;85.85;101067.69;5044529;28;20500;-85
2021/06/28 02:01:15;;;;;;;0.10;0.10;;;;;;;14.85;85.63;101065.47;5046222;28;20057;-84
2021/06/28 02:03:49;;;;;;;0.15;0.15;;;;;;;14.81;85.44;101068.00;5034278;28;20038;-84
2021/06/28 02:06:48;;;;;;;0.10;0.10;;;;;;;14.85;85.88;101076.44;5046457;28;20056;-84
2021/06/28 02:09:21;;;;;;;0.17;0.17;;;;;;;14.70;86.78;101069.28;5036895;28;20065;-84
2021/06/28 02:12:03;;;;;;;0.20;0.20;;;;;;;14.63;86.86;101066.91;5037673;28;20053;-84
2021/06/28 02:14:37;;;;;;;0.10;0.10;;;;;;;14.68;86.54;101074.22;5043921;28;20041;-84
2021/06/28 02:17:10;;;;;;;0.10;0.10;;;;;;;14.69;85.96;101062.16;5042179;28;20058;-85
2021/06/28 02:19:46;;;;;;;0.20;0.20;;;;;;;14.54;85.87;101052.22;5039227;28;20045;-85
2021/06/28 02:22:19;;;;;;;0.10;0.10;;;;;;;14.56;85.73;101059.03;5036660;28;20397;-84
2021/06/28 02:24:53;;;;;;;0.20;0.20;;;;;;;14.58;86.52;101056.81;5047525;28;20734;-84
2021/06/28 02:27:28;;;;;;;0.20;0.20;;;;;;;14.62;86.29;101062.50;5035738;28;20053;-85
2021/06/28 02:30:07;;;;;;;0.10;0.10;;;;;;;14.64;85.43;101052.09;5046146;28;20053;-85
2021/06/28 02:32:41;;;;;;;0.10;0.10;;;;;;;14.63;86.81;101043.06;5035362;28;20060;-84
2021/06/28 02:35:15;;;;;;;0.20;0.20;;;;;;;14.69;87.05;101053.94;5041446;28;20045;-85
2021/06/28 02:37:48;;;;;;;0.20;0.20;;;;;;;14.69;86.88;101053.94;5041201;28;20381;-86
2021/06/28 02:40:28;;;;;;;0.22;0.13;;;;;;;14.62;87.40;101057.03;5048878;28;20404;-86
2021/06/28 02:42:57;;;;;;;0.17;0.17;;;;;;;14.69;86.76;101051.19;5043383;28;20065;-85
2021/06/28 02:45:36;;;;;;;0.13;0.13;;;;;;;14.67;86.98;101054.25;5042864;28;20053;-86
2021/06/28 02:48:06;;;;;;;0.20;0.20;;;;;;;14.64;87.31;101057.59;5042645;28;20481;-86
2021/06/28 02:50:40;;;;;;;0.10;0.10;;;;;;;14.60;87.33;101048.31;5039903;28;20061;-86
2021/06/28 02:53:16;;;;;;;0.10;0.10;;;;;;;14.53;86.73;101036.88;5041715;28;20056;-86
2021/06/28 02:55:45;;;;;;;0.15;0.15;;;;;;;14.57;86.52;101044.22;5039519;28;20048;-87
2021/06/28 02:58:20;;;;;;;0.20;0.20;;;;;;;14.53;86.54;101040.47;5034141;28;20061;-86
2021/06/28 03:00:54;;;;;;;0.20;0.20;;;;;;;14.51;86.10;101031.72;5046575;28;20053;-86
2021/06/28 03:03:30;;;;;;;0.17;0.17;;;;;;;14.54;86.31;101044.00;5035939;28;20060;-86
2021/06/28 03:06:07;;;;;;;0.20;0.20;;;;;;;14.55;86.36;101040.16;5044168;28;20052;-86
2021/06/28 03:08:41;;;;;;;0.20;0.20;;;;;;;14.58;88.15;101045.03;5049501;28;20061;-86
2021/06/28 03:11:16;;;;;;;0.10;0.10;;;;;;;14.66;86.71;101041.66;5046476;28;20064;-87
2021/06/28 03:13:47;;;;;;;0.10;0.10;;;;;;;14.68;86.23;101039.44;5039742;28;20042;-86
2021/06/28 03:16:20;;;;;;;0.15;0.15;;;;;;;14.67;87.22;101034.25;5037636;28;20041;-86
2021/06/28 03:18:55;;;;;;;0.17;0.17;;;;;;;14.73;86.77;101041.28;5045114;28;20044;-86
2021/06/28 03:21:24;;;;;;;0.20;0.20;;;;;;;14.73;87.04;101035.78;5036565;28;20048;-86
2021/06/28 03:23:52;;;;;;;0.10;0.10;;;;;;;14.70;86.08;101030.91;5040979;28;20045;-85
2021/06/28 03:26:30;;;;;;;0.10;0.10;;;;;;;14.71;85.88;101030.63;5033705;28;20060;-86
2021/06/28 03:29:07;;;;;;;0.20;0.20;;;;;;;14.81;86.07;101046.06;5039260;28;20049;-85
2021/06/28 03:31:41;;;;;;;0.15;0.15;;;;;;;14.81;86.04;101045.28;5035651;28;20037;-86
2021/06/28 03:34:15;;;;;;;0.20;0.20;;;;;;;14.76;86.35;101030.53;5042944;28;20068;-86
2021/06/28 03:36:48;;;;;;;0.10;0.10;;;;;;;14.84;86.38;101039.19;5031377;28;20038;-85
2021/06/28 03:39:19;;;;;;;0.10;0.10;;;;;;;14.92;86.35;101050.25;5049621;28;20075;-85
2021/06/28 03:41:54;;;;;;;0.20;0.20;;;;;;;14.92;87.06;101050.25;5042976;28;20053;-86
2021/06/28 03:44:28;;;;;;;0.20;0.20;;;;;;;14.87;87.59;101055.81;5030753;28;20060;-85
2021/06/28 03:47:00;;;;;;;0.10;0.10;;;;;;;14.93;86.08;101056.56;5037634;28;20053;-85
2021/06/28 03:49:38;;;;;;;0.10;0.10;;;;;;;14.96;86.46;101048.53;5029635;28;20056;-86
2021/06/28 03:52:12;;;;;;;0.20;0.20;;;;;;;14.95;86.18;101052.41;5043986;28;20490;-86
2021/06/28 03:54:49;;;;;;;0.20;0.20;;;;;;;15.05;86.02;101054.16;5035876;28;20140;-86
2021/06/28 03:57:22;;;;;;;0.10;0.10;;;;;;;15.06;85.88;101055.78;5038657;28;20072;-86
2021/06/28 03:59:52;;;;;;;0.10;0.10;;;;;;;15.07;85.70;101053.88;5032281;28;20053;-86
2021/06/28 04:02:25;;;;;;;0.10;0.10;;;;;;;15.14;85.65;101052.34;5043606;28;20049;-86
2021/06/28 04:04:55;;;;;;;0.20;0.20;;;;;;;15.13;85.60;101050.75;5061376;28;20045;-85
2021/06/28 04:07:30;;;;;;;0.20;0.20;;;;;;;15.14;86.99;101055.09;5040951;28;20046;-86
2021/06/28 04:10:06;;;;;;;0.10;0.10;;;;;;;15.18;86.80;101059.97;5044720;28;20041;-86
2021/06/28 04:12:40;;;;;;;0.10;0.10;;;;;;;15.19;88.66;101061.59;5049740;28;20053;-86
2021/06/28 04:15:16;;;;;;;0.17;0.17;;;;;;;15.22;87.22;101061.81;5035318;28;20052;-86
2021/06/28 04:17:51;;;;;;;0.20;0.20;;;;;;;15.14;88.03;101049.59;5038959;28;20041;-86
2021/06/28 04:20:27;;;;;;;0.17;0.17;;;;;;;15.19;87.98;101059.69;5046145;28;20477;-84
2021/06/28 04:22:55;;;;;;;0.20;0.20;;;;;;;15.22;88.01;101053.59;5036441;28;20056;-86
2021/06/28 04:25:24;;;;;;;0.10;0.10;;;;;;;15.26;87.63;101056.53;5049215;28;20405;-85
2021/06/28 04:28:00;;;;;;;0.20;0.20;;;;;;;15.29;86.64;101053.19;5047475;28;20393;-86
2021/06/28 04:30:34;;;;;;;0.10;0.10;;;;;;;15.30;87.45;101052.88;5038947;28;20052;-85
2021/06/28 04:33:09;;;;;;;0.15;0.15;;;;;;;15.31;87.66;101050.94;5053788;28;20054;-85
2021/06/28 04:35:42;;;;;;;0.15;0.15;;;;;;;15.44;87.15;101060.31;5043149;28;20041;-85
2021/06/28 04:38:16;;;;;;;0.20;0.20;;;;;;;15.44;86.86;101049.34;5047480;28;20057;-85
2021/06/28 04:40:48;;;;;;;0.43;0.20;;;;;;;15.45;87.02;101049.06;5039277;28;20045;-86
2021/06/28 04:43:18;;;;;;;0.10;0.10;;;;;;;15.51;86.90;101055.25;5033870;28;20061;-86
2021/06/28 04:45:51;;;;;;;0.10;0.10;;;;;;;15.52;87.64;101053.31;5042805;28;20042;-86
2021/06/28 04:48:25;;;;;;;0.35;0.20;;;;;;;15.58;87.12;101047.41;5033843;28;20054;-86
2021/06/28 04:50:58;;;;;;;0.15;0.15;;;;;;;15.55;87.81;101045.28;5033420;28;20048;-86
2021/06/28 04:53:32;;;;;;;0.20;0.20;;;;;;;15.55;87.85;101042.56;5037272;28;20050;-86
2021/06/28 04:56:06;;;;;;;0.20;0.20;;;;;;;15.58;87.59;101038.38;5038114;28;20064;-86
2021/06/28 04:58:39;;;;;;;0.35;0.20;;;;;;;15.63;86.77;101036.34;5038591;28;20041;-86
2021/06/28 05:01:17;;;;;;;0.20;0.20;;;;;;;15.86;86.83;101046.63;5040863;28;20060;-86
2021/06/28 05:03:50;;;;;;;0.45;0.30;;;;;;;15.78;87.43;101046.22;5041547;28;20040;-85
2021/06/28 05:06:24;;;;;;;0.20;0.20;;;;;;;15.85;87.79;101045.00;5048155;28;20044;-86
2021/06/28 05:09:00;;;;;;;0.10;0.10;;;;;;;16.11;86.35;101048.81;5039511;28;20053;-86
2021/06/28 05:11:35;;;;;;;0.20;0.20;;;;;;;16.56;85.36;101050.00;5033881;28;20049;-85
2021/06/28 05:14:11;;;;;;;0.20;0.20;;;;;;;18.40;78.59;101042.53;5038597;28;20056;-86
2021/06/28 05:16:41;;;;;;;0.20;0.20;;;;;;;20.19;71.09;101040.13;5038668;28;20054;-85
2021/06/28 05:19:14;;;;;;;0.10;0.10;;;;;;;21.27;67.11;101021.06;5039203;28;20464;-86
2021/06/28 05:21:49;;;;;;;0.20;0.20;;;;;;;21.58;64.79;101020.53;5048079;28;20413;-85
2021/06/28 05:24:23;;;;;;;0.17;0.17;;;;;;;22.05;63.43;101017.25;5036811;28;20072;-85
2021/06/28 05:26:59;;;;;;;0.20;0.20;;;;;;;22.88;63.03;101019.59;5039088;28;20410;-86
2021/06/28 05:29:32;;;;;;;0.20;0.20;;;;;;;23.93;61.50;101008.25;5050989;28;20064;-85
2021/06/28 05:32:03;;;;;;;0.20;0.20;;;;;;;23.81;59.91;101005.56;5035611;28;20049;-87
2021/06/28 05:34:36;;;;;;;0.10;0.10;;;;;;;24.42;57.76;101010.47;5038997;28;20057;-87
2021/06/28 05:37:10;;;;;;;0.13;0.13;;;;;;;25.04;56.34;100997.75;5051707;28;20489;-85
2021/06/28 05:39:39;;;;;;;0.10;0.10;;;;;;;25.77;54.04;101000.47;5043452;28;20038;-86
2021/06/28 05:42:07;;;;;;;0.20;0.20;;;;;;;25.89;52.50;100997.44;5039486;28;20044;-85
2021/06/28 05:44:43;;;;;;;0.10;0.10;;;;;;;25.45;54.39;101000.81;5041126;28;20052;-86
2021/06/28 05:47:21;;;;;;;0.10;0.10;;;;;;;25.00;56.27;101011.59;5042458;28;20056;-85
2021/06/28 05:49:55;;;;;;;0.10;0.10;;;;;;;24.14;58.55;101015.44;5036678;28;20050;-85
2021/06/28 05:52:28;;;;;;;0.10;0.10;;;;;;;23.23;58.10;101007.81;5039046;28;20057;-85
2021/06/28 05:55:03;;;;;;;0.10;0.10;;;;;;;22.78;59.89;101022.88;5032911;28;20048;-84
2021/06/28 05:57:31;;;;;;;0.45;0.15;;;;;;;22.14;60.23;101014.31;5038204;28;20037;-84
2021/06/28 06:00:06;;;;;;;0.10;0.10;;;;;;;22.16;60.68;101013.97;5040960;28;20058;-83
2021/06/28 06:02:44;;;;;;;0.10;0.10;;;;;;;22.12;63.80;100994.44;5035482;28;20053;-83
2021/06/28 06:05:13;;;;;;;0.10;0.10;;;;;;;21.71;66.15;101010.25;5036448;28;20045;-84
2021/06/28 06:07:46;;;;;;;0.10;0.10;;;;;;;21.50;66.78;101022.25;5042874;28;20045;-83
2021/06/28 06:10:21;;;;;;;0.10;0.10;;;;;;;21.53;66.33;101017.97;5035419;28;20053;-84
2021/06/28 06:12:56;;;;;;;0.10;0.10;;;;;;;21.43;66.63;101013.69;5040982;28;20060;-84
2021/06/28 06:15:29;;;;;;;0.10;0.10;;;;;;;21.30;68.70;101029.47;5038279;28;20048;-85
2021/06/28 06:18:04;;;;;;;0.10;0.10;;;;;;;21.46;68.07;101032.38;5043199;28;20064;-84
2021/06/28 06:20:39;;;;;;;0.10;0.10;;;;;;;21.03;68.32;101025.41;5039320;28;20045;-84
2021/06/28 06:23:15;;;;;;;0.10;0.10;;;;;;;21.06;70.10;101033.03;5036923;28;20060;-85
2021/06/28 06:25:46;;;;;;;0.10;0.10;;;;;;;20.88;68.09;101024.09;5037474;28;20059;-85
2021/06/28 06:28:21;;;;;;;0.10;0.10;;;;;;;20.92;68.37;101033.31;5039637;28;20052;-84
2021/06/28 06:30:51;;;;;;;0.10;0.10;;;;;;;20.59;71.41;101034.13;5035743;28;20048;-83
2021/06/28 06:33:25;;;;;;;0.10;0.10;;;;;;;20.78;70.96;101035.59;5034391;28;21191;-85
2021/06/28 06:36:00;;;;;;;0.10;0.10;;;;;;;20.93;70.39;101039.69;5037651;28;20061;-85
2021/06/28 06:38:30;;;;;;;0.10;0.10;;;;;;;21.08;70.54;101032.69;5035074;28;20057;-84
2021/06/28 06:41:04;;;;;;;0.10;0.10;;;;;;;21.13;68.97;101035.22;5036459;28;20068;-85
2021/06/28 06:43:37;;;;;;;0.10;0.10;;;;;;;21.00;68.88;101042.69;5035668;28;20060;-84
2021/06/28 06:46:07;;;;;;;0.10;0.10;;;;;;;21.20;68.16;101035.47;5037247;28;20075;-85
2021/06/28 06:48:43;;;;;;;0.10;0.10;;;;;;;21.50;68.34;101033.31;5037934;28;20041;-85
2021/06/28 06:51:12;;;;;;;0.10;0.10;;;;;;;21.37;69.52;101037.22;5038279;28;20056;-84
2021/06/28 06:53:44;;;;;;;0.10;0.10;;;;;;;21.40;65.47;101039.28;5054833;28;20061;-85
2021/06/28 06:56:12;;;;;;;0.17;0.17;;;;;;;21.56;66.08;101031.94;5036405;28;20056;-86
2021/06/28 06:58:45;;;;;;;0.10;0.10;;;;;;;21.63;68.70;101034.16;5033947;28;20559;-84
2021/06/28 07:01:17;;;;;;;0.20;0.20;;;;;;;21.75;65.14;101033.34;5035597;28;20072;-84
2021/06/28 07:03:51;;;;;;;0.10;0.10;;;;;;;21.83;66.69;101032.38;5039097;28;20049;-86
2021/06/28 07:06:25;;;;;;;0.10;0.10;;;;;;;21.92;62.74;101033.06;5035888;28;20052;-84
2021/06/28 07:08:59;;;;;;;0.10;0.10;;;;;;;21.94;63.69;101035.50;5036061;28;20069;-83
2021/06/28 07:11:35;;;;;;;0.10;0.10;;;;;;;21.93;61.78;101020.03;5035386;28;20060;-85
2021/06/28 07:14:05;;;;;;;0.10;0.10;;;;;;;21.81;65.92;101022.81;5038324;28;20049;-85
2021/06/28 07:16:42;;;;;;;0.10;0.10;;;;;;;21.99;61.20;101023.38;5037144;28;20053;-84
2021/06/28 07:19:17;;;;;;;0.20;0.20;;;;;;;22.04;65.08;101039.75;5034943;28;20048;-84
2021/06/28 07:21:48;;;;;;;0.10;0.10;;;;;;;22.00;65.60;101034.09;5038579;28;20577;-84
2021/06/28 07:24:24;;;;;;;0.10;0.10;;;;;;;22.31;63.18;101034.59;5041631;28;20060;-85
2021/06/28 07:27:18;;;;;;;0.20;0.20;;;;;;;22.25;64.38;101034.84;5033343;28;20061;-85
2021/06/28 07:29:52;;;;;;;0.10;0.10;;;;;;;22.42;64.07;101036.53;5035469;28;20056;-84
2021/06/28 07:32:21;;;;;;;0.10;0.10;;;;;;;22.39;61.47;101042.81;5034534;28;20057;-84
2021/06/28 07:34:51;;;;;;;0.20;0.20;;;;;;;22.33;64.14;101035.03;5036578;28;20057;-84
2021/06/28 07:37:25;;;;;;;0.10;0.10;;;;;;;22.65;59.75;101040.72;5035685;28;20052;-83
2021/06/28 07:40:00;;;;;;;0.10;0.10;;;;;;;22.77;59.89;101035.13;5036192;28;20067;-84
2021/06/28 07:42:32;;;;;;;0.10;0.10;;;;;;;22.75;59.59;101038.25;5034764;28;20056;-83
2021/06/28 07:45:07;;;;;;;0.10;0.10;;;;;;;22.85;63.10;101031.38;5033995;28;20059;-84
2021/06/28 07:47:41;;;;;;;0.10;0.10;;;;;;;22.98;60.40;101022.97;5033229;28;20045;-84
2021/06/28 07:50:13;;;;;;;0.10;0.10;;;;;;;22.88;61.98;101044.56;5036009;28;20052;-84
2021/06/28 07:52:47;;;;;;;0.10;0.10;;;;;;;23.06;61.04;101033.09;5033420;28;20846;-85
2021/06/28 07:55:22;;;;;;;0.10;0.10;;;;;;;23.32;58.50;101035.38;5029054;28;20485;-84
2021/06/28 07:57:50;;;;;;;0.10;0.10;;;;;;;23.23;60.12;101024.47;5034617;28;20049;-85
2021/06/28 08:00:20;;;;;;;0.10;0.10;;;;;;;23.40;60.63;101014.16;5041344;28;20057;-84
2021/06/28 08:02:53;;;;;;;0.10;0.10;;;;;;;23.61;61.25;101019.41;5037971;28;20056;-85
2021/06/28 08:05:30;;;;;;;0.10;0.10;;;;;;;23.78;56.34;101021.81;5037549;28;20057;-84
2021/06/28 08:08:05;;;;;;;;;;;;;;;23.86;59.08;101022.75;5042175;28;20045;-83
2021/06/28 08:10:38;;;;;;;0.20;0.20;;;;;;;23.93;57.66;101014.63;5037385;28;20616;-83
2021/06/28 08:13:08;;;;;;;0.10;0.10;;;;;;;24.06;60.36;101022.84;5037047;28;20500;-84
2021/06/28 08:15:43;;;;;;;0.10;0.10;;;;;;;23.81;58.50;101014.72;5041047;28;20045;-83
2021/06/28 08:18:11;;;;;;;0.03;0.03;;;;;;;23.76;59.71;101017.78;5036397;28;21243;-83
2021/06/28 08:20:46;;;;;;;0.10;0.10;;;;;;;23.84;53.79;101010.41;5037166;28;20681;-84
2021/06/28 08:23:22;;;;;;;0.10;0.10;;;;;;;23.42;59.60;101000.72;5037758;28;20053;-84
2021/06/28 08:25:50;;;;;;;0.10;0.10;;;;;;;23.44;61.91;101015.06;5036680;28;20057;-84
2021/06/28 08:28:24;;;;;;;0.10;0.10;;;;;;;23.53;55.71;101006.53;5036959;28;20052;-85
2021/06/28 08:30:57;;;;;;;0.10;0.10;;;;;;;23.50;60.01;101013.59;5044447;28;20041;-84
2021/06/28 08:33:36;;;;;;;0.10;0.10;;;;;;;23.68;58.80;101007.66;5042113;28;20061;-84
2021/06/28 08:36:07;;;;;;;0.10;0.10;;;;;;;23.56;57.46;101011.34;5053099;28;20057;-84
2021/06/28 08:38:40;;;;;;;0.10;0.10;;;;;;;23.56;58.30;101012.19;5036414;28;20057;-83
2021/06/28 08:41:15;;;;;;;0.10;0.10;;;;;;;23.48;57.64;101015.13;5053015;28;20064;-84
2021/06/28 08:43:48;;;;;;;0.10;0.10;;;;;;;23.77;54.59;101008.28;5039421;28;20409;-84
2021/06/28 08:46:22;;;;;;;0.10;0.10;;;;;;;23.86;59.87;101002.50;5036139;28;20056;-83
2021/06/28 08:48:50;;;;;;;0.10;0.10;;;;;;;23.98;55.91;100996.06;5035715;28;20057;-83
2021/06/28 08:51:31;;;;;;;0.10;0.10;;;;;;;24.03;54.78;100996.56;5039977;28;20397;-84
2021/06/28 08:54:09;;;;;;;0.10;0.10;;;;;;;24.07;58.67;101004.97;5041137;28;20052;-83
2021/06/28 08:56:46;;;;;;;0.10;0.10;;;;;;;24.01;58.84;101001.69;5037713;28;20076;-83
2021/06/28 08:59:16;;;;;;;0.10;0.10;;;;;;;23.81;56.87;101003.63;5036681;28;20048;-83
2021/06/28 09:01:50;;;;;;;0.10;0.10;;;;;;;23.96;58.65;101002.00;5039531;28;20060;-85
2021/06/28 09:04:21;;;;;;;0.10;0.10;;;;;;;23.91;57.37;101003.06;5039532;28;20049;-83
2021/06/28 09:07:16;;;;;;;0.10;0.10;;;;;;;24.18;52.96;100996.88;5042356;28;20063;-84
2021/06/28 09:09:50;;;;;;;0.10;0.10;;;;;;;24.50;56.50;100991.97;5035265;28;20425;-83
2021/06/28 09:12:20;;;;;;;0.10;0.10;;;;;;;24.79;49.29;100989.75;5037756;28;20099;-84
2021/06/28 09:14:55;;;;;;;0.10;0.10;;;;;;;24.96;56.82;100985.66;5037409;28;20044;-84
2021/06/28 09:17:30;;;;;;;0.10;0.10;;;;;;;25.12;51.14;100994.69;5035848;28;20060;-83
2021/06/28 09:20:19;;;;;;;0.10;0.10;;;;;;;25.25;46.57;100992.50;5036768;28;20056;-84
2021/06/28 09:22:54;;;;;;;0.10;0.10;;;;;;;25.21;51.45;100988.84;5033746;28;20061;-84
2021/06/28 09:25:33;;;;;;;0.10;0.10;;;;;;;25.23;50.02;100991.28;5038170;28;20057;-83
2021/06/28 09:28:08;;;;;;;0.10;0.10;;;;;;;25.30;52.59;100983.84;5040025;28;20598;-84
2021/06/28 09:30:50;;;;;;;0.10;0.10;;;;;;;25.34;46.90;100991.47;5038241;28;20053;-83
2021/06/28 09:33:23;;;;;;;0.10;0.10;;;;;;;25.35;49.30;100987.53;5041408;28;20057;-83
2021/06/28 09:35:58;;;;;;;0.10;0.10;;;;;;;25.49;48.63;100979.38;5036077;28;20064;-83
2021/06/28 09:38:38;;;;;;;0.10;0.10;;;;;;;25.36;44.92;100989.13;5040704;28;20045;-85
2021/06/28 09:41:26;;;;;;;0.10;0.10;;;;;;;25.48;49.86;100979.75;5040788;28;20813;-83
2021/06/28 09:44:01;;;;;;;0.10;0.10;;;;;;;25.67;45.57;100970.47;5040497;28;20057;-84
2021/06/28 09:46:30;;;;;;;0.10;0.10;;;;;;;25.79;44.28;100975.81;5040251;28;20064;-83
2021/06/28 09:48:59;;;;;;;0.10;0.10;;;;;;;25.67;44.87;100987.19;5057311;28;20061;-82
2021/06/28 09:51:36;;;;;;;0.10;0.10;;;;;;;25.82;50.63;100982.63;5037463;28;20601;-83
2021/06/28 09:54:20;;;;;;;0.10;0.10;;;;;;;25.88;49.36;100987.50;5039974;28;20056;-85
2021/06/28 09:56:54;;;;;;;0.10;0.10;;;;;;;25.88;41.76;100983.91;5039635;28;20057;-83
2021/06/28 09:59:32;;;;;;;0.10;0.10;;;;;;;25.95;47.26;100981.22;5039150;28;20052;-85
2021/06/28 10:02:18;;;;;;;0.10;0.10;;;;;;;26.10;41.69;100977.47;5037360;28;20092;-82
2021/06/28 10:04:56;;;;;;;0.10;0.10;;;;;;;26.16;42.70;100975.13;5037907;28;20045;-83
2021/06/28 10:07:30;;;;;;;0.10;0.10;;;;;;;26.19;42.00;100973.56;5037801;28;20055;-83
2021/06/28 10:10:26;;;;;;;0.10;0.10;;;;;;;26.17;47.24;100968.38;5040042;28;20045;-84
2021/06/28 10:13:04;;;;;;;0.10;0.10;;;;;;;26.24;45.01;100968.47;5038240;28;20704;-84
2021/06/28 10:15:39;;;;;;;0.10;0.10;;;;;;;26.41;46.09;100971.84;5038616;28;20595;-83
2021/06/28 10:18:13;;;;;;;0.10;0.10;;;;;;;26.39;41.96;100965.81;5037177;28;20059;-83
2021/06/28 10:21:13;;;;;;;0.10;0.10;;;;;;;26.52;41.92;100966.38;4999709;28;20063;-83
2021/06/28 10:23:50;;;;;;;0.10;0.10;;;;;;;26.57;42.78;100960.44;5033461;28;20056;-83
2021/06/28 10:26:25;;;;;;;0.10;0.10;;;;;;;26.46;42.87;100965.88;5032411;28;20037;-82
2021/06/28 10:28:59;;;;;;;0.10;0.10;;;;;;;26.58;38.80;100962.03;5029685;28;20076;-83
2021/06/28 10:31:29;;;;;;;0.10;0.10;;;;;;;26.25;37.67;100960.88;5036850;28;20056;-83
2021/06/28 10:34:03;;;;;;;0.38;0.10;;;;;;;26.54;39.94;100958.41;5033976;28;20057;-83
2021/06/28 10:36:36;;;;;;;0.10;0.10;;;;;;;26.66;37.53;100955.34;5031905;28;20068;-83
2021/06/28 10:39:24;;;;;;;0.10;0.10;;;;;;;26.70;46.31;100949.84;5029553;28;20410;-84
2021/06/28 10:41:55;;;;;;;0.10;0.10;;;;;;;26.53;40.93;100949.25;5037669;28;20048;-83
2021/06/28 10:44:26;;;;;;;0.10;0.10;;;;;;;26.63;37.87;100953.31;5035072;28;20052;-84
2021/06/28 10:47:09;;;;;;;0.10;0.10;;;;;;;26.79;38.38;100941.91;5033666;28;20076;-82
2021/06/28 10:50:02;;;;;;;0.10;0.10;;;;;;;26.99;43.58;100946.09;5035078;28;20049;-84
2021/06/28 10:52:48;;;;;;;0.10;0.10;;;;;;;27.05;39.88;100937.34;5031415;28;21429;-85
2021/06/28 10:55:42;;;;;;;0.10;0.10;;;;;;;26.91;41.37;100935.25;5029517;28;20053;-85
2021/06/28 10:58:30;;;;;;;0.10;0.10;;;;;;;27.03;43.35;100939.75;5036209;28;20063;-83
2021/06/28 11:01:09;;;;;;;0.10;0.10;;;;;;;27.09;36.15;100938.97;5034966;28;20037;-84
2021/06/28 11:03:42;;;;;;;0.10;0.10;;;;;;;27.11;42.67;100941.38;5033032;28;20053;-85
2021/06/28 11:06:22;;;;;;;0.10;0.10;;;;;;;27.37;42.36;100936.81;5031486;28;20072;-84
2021/06/28 11:09:01;;;;;;;0.10;0.10;;;;;;;27.54;41.52;100929.72;5034615;28;20049;-83
2021/06/28 11:11:56;;;;;;;0.10;0.10;;;;;;;27.62;41.96;100929.38;5032587;28;20049;-84
2021/06/28 11:14:47;;;;;;;0.10;0.10;;;;;;;27.76;42.17;100934.25;5028989;28;20063;-84
2021/06/28 11:17:20;;;;;;;0.10;0.10;;;;;;;27.88;41.47;100935.09;5033467;28;20711;-84
2021/06/28 11:20:06;;;;;;;0.10;0.10;;;;;;;27.53;38.91;100934.50;5033185;28;20053;-84
2021/06/28 11:22:44;;;;;;;0.00;0.00;;;;;;;27.72;44.00;100925.03;5032411;28;20045;-85
2021/06/28 11:25:21;;;;;;;0.10;0.10;;;;;;;27.94;42.78;100931.53;5034880;28;20452;-84
2021/06/28 11:28:11;;;;;;;0.10;0.10;;;;;;;28.03;40.04;100924.78;5036242;28;20697;-85
2021/06/28 11:31:07;;;;;;;0.10;0.10;;;;;;;27.75;40.03;100929.03;5033569;28;20980;-84
2021/06/28 11:33:47;;;;;;;0.10;0.10;;;;;;;27.68;40.81;100940.19;5034931;28;20044;-85
2021/06/28 11:36:45;;;;;;;0.10;0.10;;;;;;;27.53;40.76;100931.72;5035812;28;20053;-84
2021/06/28 11:39:26;;;;;;;0.10;0.10;;;;;;;27.55;42.92;100922.94;5027163;28;20053;-85
2021/06/28 11:42:18;;;;;;;0.10;0.10;;;;;;;27.88;38.39;100921.09;5042090;28;20064;-84
2021/06/28 11:44:54;;;;;;;0.10;0.10;;;;;;;28.12;37.88;100920.41;5042112;28;20051;-84
2021/06/28 11:48:04;;;;;;;0.10;0.10;;;;;;;27.70;41.54;100915.44;5038419;28;20059;-84
2021/06/28 11:50:41;;;;;;;0.10;0.10;;;;;;;27.86;41.69;100920.72;4959232;28;20058;-84
2021/06/28 11:53:15;;;;;;;0.10;0.10;;;;;;;28.26;38.38;100925.25;4940097;28;20059;-84
2021/06/28 11:55:49;;;;;;;0.10;0.10;;;;;;;28.65;39.92;100915.34;4999283;28;20063;-84
2021/06/28 11:58:25;;;;;;;0.10;0.10;;;;;;;28.89;34.79;100918.53;5041216;28;20096;-84
2021/06/28 12:01:06;;;;;;;0.10;0.10;;;;;;;28.66;34.25;100919.75;5039723;28;20045;-83
2021/06/28 12:03:42;;;;;;;0.10;0.10;;;;;;;28.55;36.55;100918.91;5039572;28;20516;-84